• Join FlightAware (Why Join?)
  • Login
  • US Flag 
05:59AM EDT


 

Airport Tracker/Info


-or-


 

Live Flight TrackerFlight Track Log ✈ UAL1519 ✈ 25-Apr-2013 ✈ KEWR - TIST / STT

Flight Track Log - Related Links

Times and Time Zones

All times are in EDT time to prevent confusion due to time zone crossing. See the UAL1519 flight status page for this flight to view local times or setup timezone preferences in your user account.

Time Position Orientation Groundspeed Altitude Reporting Facility
EDT Latitude Longitude Course Direction KTS MPH feet Rate Location/Type
10:05AM 40.7333 -74.1000 110° East 225 259 2,800  Level New York TRACON
10:06AM 40.8000 -74.1000 360° North 254 292 5,400 1,740 Climbing New York TRACON
10:07AM 40.2039 -74.1500 180° South  Level FlightAware Approximate
10:07AM 40.7667 -74.1833 242° Southwest 277 319 6,300  Level New York TRACON
10:08AM 40.0833 -74.1378 90° East  Level FlightAware Approximate
10:08AM 40.7000 -74.2167 201° Southwest 253 291 9,800  Level New York TRACON
10:09AM 40.0361 -73.9889 123° Southeast  Level FlightAware Approximate
10:09AM 40.6333 -74.2333 191° South 284 327 12,200  Level New York TRACON
10:10AM 39.9915 -73.8299 110° East  Level FlightAware Approximate
10:10AM 40.4967 -74.2181 175° South 312 359 14,900  Level New York Center
10:11AM 40.4136 -74.2056 173° South 306 352 14,900 60 Level New York Center
10:12AM 40.3286 -74.1931 174° South 312 359 15,100 1,140 Climbing New York Center
10:13AM 40.2650 -74.0839 127° Southeast 323 372 17,300 2,400 Climbing New York Center
10:14AM 40.2167 -73.9511 115° Southeast 358 412 19,900 2,640 Climbing New York Center
10:15AM 40.1681 -73.8158 115° Southeast 391 450 22,600 1,440 Climbing New York Center
10:16AM 40.1236 -73.6808 113° Southeast 412 474 22,900 120 Climbing New York Center
10:17AM 40.0689 -73.5294 115° Southeast 434 499 22,900 840 Level New York Center
10:18AM 40.0161 -73.3783 114° Southeast 446 513 24,600 1,860 Climbing New York Center
10:19AM 39.9611 -73.2219 115° Southeast 458 527 26,700 2,100 Climbing New York Center
10:20AM 39.9061 -73.0656 115° Southeast 463 533 28,900 1,200 Climbing New York Center
10:21AM 39.8506 -72.9125 115° Southeast 463 533 29,100 660 Climbing New York Center
10:22AM 39.7950 -72.7567 115° Southeast 468 539 30,300 1,200 Climbing New York Center
10:23AM 39.7350 -72.5931 115° Southeast 480 552 31,600 1,200 Climbing New York Center
10:24AM 39.6750 -72.4294 115° Southeast 488 562 32,800 1,200 Climbing New York Center
10:25AM 39.6128 -72.2583 115° Southeast 506 582 34,100 1,380 Climbing New York Center
10:26AM 39.5500 -72.0981 117° Southeast 511 588 35,600 1,320 Climbing New York Center
10:27AM 39.4914 -71.9328 115° Southeast 506 582 36,800 1,200 Climbing New York Center
10:28AM 39.4306 -71.7733 116° Southeast 506 582 38,100 1,020 Climbing New York Center
10:29AM 39.3269 -71.6914 149° Southeast 469 540 38,900 360 Climbing New York Center
10:30AM 39.2081 -71.6842 177° South 407 468 38,900  Level New York Center
10:31AM 39.0936 -71.6642 172° South 413 475 38,900  Level New York Center
10:32AM 38.9769 -71.6544 176° South 420 483 38,900  Level New York Center
10:33AM 38.8583 -71.6369 173° South 426 490 38,900  Level New York Center
10:34AM 38.7394 -71.6194 173° South 426 490 38,900  Level New York Center
10:35AM 38.6186 -71.6075 176° South 432 497 38,900  Level New York Center
10:36AM 38.5019 -71.5900 173° South 432 497 38,900  Level New York Center
10:37AM 38.3811 -71.5753 175° South 432 497 38,900  Level New York Center
10:38AM 38.2622 -71.5633 175° South 432 497 38,900  Level New York Center
10:39AM 38.1456 -71.5436 172° South 426 490 38,900  Level New York Center
10:40AM 38.0292 -71.5211 171° South 426 490 38,900  Level New York Center
10:41AM 37.9081 -71.5119 177° South 426 490 38,900  Level New York Center
10:42AM 37.7872 -71.4975 175° South 426 490 38,900  Level New York Center
10:43AM 37.6686 -71.4753 172° South 431 496 38,900  Level New York Center
10:44AM 37.5475 -71.4583 174° South 439 505 38,900  Level New York Center
10:45AM 37.4122 -71.4231 168° South 444 511 38,900  Level New York Center
10:46AM 37.3231 -71.3517 148° Southeast 437 503 38,900  Level New York Center
10:47AM 37.1919 -71.2856 158° South 453 521 38,900  Level New York Center
10:49AM 37.0505 -71.1851 153° Southeast  Level FlightAware Approximate
10:56AM 36.2717 -70.7287 155° Southeast  Level FlightAware Approximate
10:57AM 36.1600 -70.6651 155° Southeast  Level FlightAware Approximate
10:58AM 36.0482 -70.6017 155° Southeast  Level FlightAware Approximate
10:59AM 35.9364 -70.5384 155° Southeast  Level FlightAware Approximate
11:00AM 35.8246 -70.4753 155° Southeast  Level FlightAware Approximate
11:00AM 35.7667 -70.4500 168° South 469 540 39,000  Level New York Oceanic (ODAPS)
11:01AM 35.7100 -70.4227 168° South  Level FlightAware Approximate
11:02AM 35.5898 -70.3907 168° South  Level FlightAware Approximate
11:03AM 35.4696 -70.3589 168° South  Level FlightAware Approximate
11:04AM 35.3494 -70.3271 168° South  Level FlightAware Approximate
11:05AM 35.2292 -70.2955 168° South  Level FlightAware Approximate
11:06AM 35.1090 -70.2639 168° South  Level FlightAware Approximate
11:07AM 34.8711 -70.2153 168° South 469 540 39,000  Level FlightAware Transoceanic
11:08AM 34.7431 -70.1822 168° South 469 540 39,000  Level FlightAware Transoceanic
11:09AM 34.6151 -70.1492 168° South 469 540 39,000  Level FlightAware Transoceanic
11:10AM 34.4871 -70.1163 168° South 469 540 39,000  Level FlightAware Transoceanic
11:11AM 34.3591 -70.0835 168° South 469 540 39,000  Level FlightAware Transoceanic
11:12AM 34.2311 -70.0508 168° South 469 540 39,000  Level FlightAware Transoceanic
11:13AM 34.1031 -70.0182 168° South 469 540 39,000  Level FlightAware Transoceanic
11:14AM 33.9751 -69.9857 168° South 469 540 39,000  Level FlightAware Transoceanic
11:15AM 33.8470 -69.9533 168° South 469 540 39,000  Level FlightAware Transoceanic
11:16AM 33.7190 -69.9210 168° South 469 540 39,000  Level FlightAware Transoceanic
11:17AM 33.5910 -69.8888 168° South 469 540 39,000  Level FlightAware Transoceanic
11:18AM 33.4629 -69.8567 168° South 469 540 39,000  Level FlightAware Transoceanic
11:19AM 33.3348 -69.8247 168° South 469 540 39,000  Level FlightAware Transoceanic
11:20AM 33.2067 -69.7927 168° South 469 540 39,000  Level FlightAware Transoceanic
11:21AM 33.0787 -69.7609 168° South 469 540 39,000  Level FlightAware Transoceanic
11:22AM 32.9506 -69.7292 168° South 469 540 39,000  Level FlightAware Transoceanic
11:23AM 32.8224 -69.6975 168° South 469 540 39,000  Level FlightAware Transoceanic
11:24AM 32.6943 -69.6660 168° South 469 540 39,000  Level FlightAware Transoceanic
11:25AM 32.5662 -69.6345 168° South 469 540 39,000  Level FlightAware Transoceanic
11:26AM 32.4381 -69.6031 168° South 469 540 39,000  Level FlightAware Transoceanic
11:27AM 32.3100 -69.5718 168° South 469 540 39,000  Level FlightAware Transoceanic
11:28AM 32.1818 -69.5406 168° South 469 540 39,000  Level FlightAware Transoceanic
11:29AM 32.0537 -69.5095 168° South 469 540 39,000  Level FlightAware Transoceanic
11:30AM 31.9255 -69.4785 168° South 469 540 39,000  Level FlightAware Transoceanic
11:31AM 31.7973 -69.4475 168° South 469 540 39,000  Level FlightAware Transoceanic
11:32AM 31.6692 -69.4167 168° South 469 540 39,000  Level FlightAware Transoceanic
11:33AM 31.5410 -69.3859 168° South 469 540 39,000  Level FlightAware Transoceanic
11:34AM 31.4128 -69.3552 168° South 469 540 39,000  Level FlightAware Transoceanic
11:35AM 31.2846 -69.3246 168° South 469 540 39,000  Level FlightAware Transoceanic
11:36AM 31.1564 -69.2941 169° South 469 540 39,000  Level FlightAware Transoceanic
11:37AM 31.0282 -69.2637 169° South 469 540 39,000  Level FlightAware Transoceanic
11:38AM 30.9000 -69.2333 168° South 469 540 39,000  Level FlightAware Transoceanic
11:39AM 30.7713 -69.2026 168° South 469 540 39,000  Level FlightAware Transoceanic
11:39AM 30.9000 -69.2333 168° South 471 542 39,000  Level New York Oceanic (ODAPS)
11:40AM 30.6425 -69.1720 168° South 469 540 39,000  Level FlightAware Transoceanic
11:41AM 30.5138 -69.1415 168° South 469 540 39,000  Level FlightAware Transoceanic
11:42AM 30.3851 -69.1111 168° South 469 540 39,000  Level FlightAware Transoceanic
11:43AM 30.2563 -69.0807 169° South 469 540 39,000  Level FlightAware Transoceanic
11:44AM 30.1276 -69.0504 169° South 469 540 39,000  Level FlightAware Transoceanic
11:45AM 29.8700 -68.9901 169° South 471 542 39,000  Level FlightAware Transoceanic
11:46AM 29.7413 -68.9600 169° South 471 542 39,000  Level FlightAware Transoceanic
11:47AM 29.6125 -68.9301 169° South 471 542 39,000  Level FlightAware Transoceanic
11:48AM 29.4837 -68.9002 169° South 471 542 39,000  Level FlightAware Transoceanic
11:49AM 29.3549 -68.8703 169° South 471 542 39,000  Level FlightAware Transoceanic
11:50AM 29.2261 -68.8406 169° South 471 542 39,000  Level FlightAware Transoceanic
11:51AM 29.0973 -68.8109 169° South 471 542 39,000  Level FlightAware Transoceanic
11:52AM 28.9685 -68.7813 169° South 471 542 39,000  Level FlightAware Transoceanic
11:53AM 28.8396 -68.7518 169° South 471 542 39,000  Level FlightAware Transoceanic
11:54AM 28.7108 -68.7224 169° South 471 542 39,000  Level FlightAware Transoceanic
11:55AM 28.5820 -68.6930 169° South 471 542 39,000  Level FlightAware Transoceanic
11:56AM 28.4531 -68.6637 169° South 471 542 39,000  Level FlightAware Transoceanic
11:57AM 28.3243 -68.6344 169° South 471 542 39,000  Level FlightAware Transoceanic
11:58AM 28.1954 -68.6053 169° South 471 542 39,000  Level FlightAware Transoceanic
11:59AM 28.0666 -68.5762 169° South 471 542 39,000  Level FlightAware Transoceanic
12:00PM 27.9377 -68.5471 169° South 471 542 39,000  Level FlightAware Transoceanic
12:01PM 27.8088 -68.5182 169° South 471 542 39,000  Level FlightAware Transoceanic
12:02PM 27.6800 -68.4893 169° South 471 542 39,000  Level FlightAware Transoceanic
12:03PM 27.5511 -68.4605 169° South 471 542 39,000  Level FlightAware Transoceanic
12:04PM 27.4222 -68.4317 169° South 471 542 39,000  Level FlightAware Transoceanic
12:05PM 27.2933 -68.4031 169° South 471 542 39,000  Level FlightAware Transoceanic
12:06PM 27.1644 -68.3744 169° South 471 542 39,000  Level FlightAware Transoceanic
12:07PM 27.0355 -68.3459 169° South 471 542 39,000  Level FlightAware Transoceanic
12:08PM 26.9066 -68.3174 169° South 471 542 39,000  Level FlightAware Transoceanic
12:08PM 27.9333 -68.5333 169° South 500 575 39,000  Level New York Oceanic (ODAPS)
12:09PM 26.7776 -68.2890 169° South 471 542 39,000  Level FlightAware Transoceanic
12:10PM 26.6487 -68.2606 169° South 471 542 39,000  Level FlightAware Transoceanic
12:11PM 26.5198 -68.2323 169° South 471 542 39,000  Level FlightAware Transoceanic
12:12PM 26.3909 -68.2041 169° South 471 542 39,000  Level FlightAware Transoceanic
12:13PM 26.2619 -68.1759 169° South 471 542 39,000  Level FlightAware Transoceanic
12:14PM 26.0530 -68.1216 169° South 500 575 39,000  Level FlightAware Transoceanic
12:15PM 25.9187 -68.0927 169° South 500 575 39,000  Level FlightAware Transoceanic
12:16PM 25.7843 -68.0639 169° South 500 575 39,000  Level FlightAware Transoceanic
12:17PM 25.6500 -68.0351 169° South 500 575 39,000  Level FlightAware Transoceanic
12:18PM 25.5156 -68.0064 169° South 500 575 39,000  Level FlightAware Transoceanic
12:19PM 25.3812 -67.9778 169° South 500 575 39,000  Level FlightAware Transoceanic
12:20PM 25.2468 -67.9492 169° South 500 575 39,000  Level FlightAware Transoceanic
12:21PM 25.1125 -67.9207 169° South 500 575 39,000  Level FlightAware Transoceanic
12:22PM 24.9781 -67.8922 169° South 500 575 39,000  Level FlightAware Transoceanic
12:23PM 24.8437 -67.8639 169° South 500 575 39,000  Level FlightAware Transoceanic
12:24PM 24.7093 -67.8355 169° South 500 575 39,000  Level FlightAware Transoceanic
12:25PM 24.5749 -67.8073 169° South 500 575 39,000  Level FlightAware Transoceanic
12:26PM 24.4405 -67.7791 169° South 500 575 39,000  Level FlightAware Transoceanic
12:27PM 24.3060 -67.7509 169° South 500 575 39,000  Level FlightAware Transoceanic
12:27PM 25.4667 -68.0000 169° South 493 567 39,000  Level New York Oceanic (ODAPS)
12:28PM 24.1716 -67.7228 169° South 500 575 39,000  Level FlightAware Transoceanic
12:29PM 24.0372 -67.6948 169° South 500 575 39,000  Level FlightAware Transoceanic
12:30PM 23.9028 -67.6669 169° South 500 575 39,000  Level FlightAware Transoceanic
12:31PM 23.7683 -67.6390 169° South 500 575 39,000  Level FlightAware Transoceanic
12:32PM 23.6339 -67.6111 169° South 500 575 39,000  Level FlightAware Transoceanic
12:33PM 23.4994 -67.5833 169° South 500 575 39,000  Level FlightAware Transoceanic
12:34PM 23.3430 -67.5528 169° South 493 567 39,000  Level FlightAware Transoceanic
12:35PM 23.2103 -67.5254 169° South 493 567 39,000  Level FlightAware Transoceanic
12:35PM 23.2000 -67.5167 169° South 490 564 39,000  Level San Juan Center
12:36PM 23.0775 -67.4980 169° South 493 567 39,000  Level FlightAware Transoceanic
12:36PM 23.0667 -67.4833 167° South 500 575 39,000  Level San Juan Center
12:37PM 22.9447 -67.4706 169° South 493 567 39,000  Level FlightAware Transoceanic
12:37PM 22.9333 -67.4667 173° South 490 564 39,000  Level San Juan Center
12:38PM 22.8119 -67.4433 169° South 493 567 39,000  Level FlightAware Transoceanic
12:38PM 22.8000 -67.4333 167° South 490 564 39,000  Level San Juan Center
12:39PM 22.6791 -67.4161 169° South 493 567 39,000  Level FlightAware Transoceanic
12:39PM 22.6667 -67.4000 167° South 490 564 39,000  Level San Juan Center
12:40PM 22.5463 -67.3889 169° South 493 567 39,000  Level FlightAware Transoceanic
12:40PM 22.5333 -67.3833 173° South 490 564 39,000  Level San Juan Center
12:41PM 22.3833 -67.3500 168° South 490 564 39,000  Level San Juan Center
12:42PM 22.2500 -67.3167 167° South 490 564 39,000  Level San Juan Center
12:43PM 22.1167 -67.3000 173° South 490 564 39,000  Level San Juan Center
12:44PM 22.2333 -67.3167 170° South 443 510 39,000  Level New York Oceanic (ODAPS)
12:44PM 21.9833 -67.2667 167° South 490 564 39,000  Level San Juan Center
12:45PM 21.8500 -67.2333 170° South 490 564 39,000  Level San Juan Center
12:46PM 21.7167 -67.2167 173° South 490 564 39,000  Level San Juan Center
12:47PM 21.5833 -67.1833 167° South 490 564 39,000  Level San Juan Center
12:48PM 21.4667 -67.1667 172° South 500 575 39,000  Level San Juan Center
12:49PM 21.3000 -67.1167 164° South 510 587 39,000 -480 Level San Juan Center
12:50PM 21.1833 -67.0333 146° Southeast 510 587 38,100 -960 Descending San Juan Center
12:51PM 21.0667 -66.9500 146° Southeast 510 587 37,100 -1,020 Descending San Juan Center
12:52PM 20.9500 -66.8667 146° Southeast 500 575 36,100 -960 Descending San Juan Center
12:53PM 20.8333 -66.7833 146° Southeast 510 587 35,200 -900 Descending San Juan Center
12:54PM 20.7000 -66.7000 150° Southeast 510 587 34,300 -960 Descending San Juan Center
12:55PM 20.5833 -66.6167 146° Southeast 510 587 33,300 -960 Descending San Juan Center
12:56PM 20.4667 -66.5500 152° Southeast 510 587 32,400 -1,020 Descending San Juan Center
12:57PM 20.3333 -66.4667 150° Southeast 520 598 31,300 -720 Descending San Juan Center
12:58PM 20.2167 -66.3833 146° Southeast 520 598 31,000 -180 Descending San Juan Center
12:59PM 20.1000 -66.3000 146° Southeast 510 587 31,000  Level San Juan Center
01:00PM 19.9667 -66.2167 150° Southeast 510 587 31,000  Level San Juan Center
01:01PM 19.8500 -66.1333 146° Southeast 520 598 31,000  Level San Juan Center
01:02PM 19.7333 -66.0500 146° Southeast 510 587 31,000  Level San Juan Center
01:03PM 19.6000 -65.9667 150° Southeast 510 587 31,000 -1,380 Level San Juan Center
01:04PM 19.4833 -65.8833 146° Southeast 510 587 28,300 -2,760 Descending San Juan Center
01:05PM 19.3667 -65.8167 152° Southeast 510 587 25,500 -2,700 Descending San Juan Center
01:06PM 19.2500 -65.7333 146° Southeast 490 564 22,900 -2,580 Descending San Juan Center
01:07PM 19.1333 -65.6667 152° Southeast 450 518 20,400 -2,460 Descending San Juan Center
01:08PM 19.0333 -65.6000 148° Southeast 440 506 18,000 -2,400 Descending San Juan Center
01:09PM 18.9333 -65.5333 148° Southeast 420 483 15,600 -2,160 Descending San Juan Center
01:11PM 18.7500 -65.4000 145° Southeast 370 426 11,500 -2,400 Descending San Juan Center
01:12PM 18.6500 -65.3667 162° South 370 426 8,500 -2,760 Descending San Juan Center
01:13PM 18.5667 -65.3000 143° Southeast 360 414 6,000 -2,160 Descending San Juan Center
01:14PM 18.4833 -65.2667 159° South 340 391 4,200 -1,500 Descending San Juan Center
01:15PM 18.4000 -65.2167 150° Southeast 320 368 3,000 -1,200 Descending San Juan Center